sensor_id;sensor_type;location;lat;lon;timestamp;pressure;altitude;pressure_sealevel;temperature;humidity
64544;BME280;50936;51.660;5.616;2023-04-09T00:02:14;102219.78;;;9.83;100.00
64544;BME280;50936;51.660;5.616;2023-04-09T00:04:41;102215.34;;;9.82;100.00
64544;BME280;50936;51.660;5.616;2023-04-09T00:07:08;102212.66;;;9.82;100.00
64544;BME280;50936;51.660;5.616;2023-04-09T00:09:35;102214.44;;;9.81;100.00
64544;BME280;50936;51.660;5.616;2023-04-09T00:12:02;102217.09;;;9.83;100.00
64544;BME280;50936;51.660;5.616;2023-04-09T00:14:29;102217.09;;;9.83;100.00
64544;BME280;50936;51.660;5.616;2023-04-09T00:16:56;102216.28;;;9.81;100.00
64544;BME280;50936;51.660;5.616;2023-04-09T00:19:23;102211.91;;;9.78;100.00
64544;BME280;50936;51.660;5.616;2023-04-09T00:21:50;102207.50;;;9.76;100.00
64544;BME280;50936;51.660;5.616;2023-04-09T00:24:17;102206.63;;;9.75;100.00
64544;BME280;50936;51.660;5.616;2023-04-09T00:26:44;102200.38;;;9.75;100.00
64544;BME280;50936;51.660;5.616;2023-04-09T00:29:11;102202.28;;;9.73;100.00
64544;BME280;50936;51.660;5.616;2023-04-09T00:31:38;102193.22;;;9.74;100.00
64544;BME280;50936;51.660;5.616;2023-04-09T00:34:05;102188.84;;;9.71;100.00
64544;BME280;50936;51.660;5.616;2023-04-09T00:36:32;102197.00;;;9.70;100.00
64544;BME280;50936;51.660;5.616;2023-04-09T00:38:59;102189.72;;;9.72;100.00
64544;BME280;50936;51.660;5.616;2023-04-09T00:41:26;102194.31;;;9.70;100.00
64544;BME280;50936;51.660;5.616;2023-04-09T00:43:55;102194.38;;;9.68;100.00
64544;BME280;50936;51.660;5.616;2023-04-09T00:46:22;102193.50;;;9.68;100.00
64544;BME280;50936;51.660;5.616;2023-04-09T00:48:49;102188.09;;;9.68;100.00
64544;BME280;50936;51.660;5.616;2023-04-09T00:51:17;102187.13;;;9.69;100.00
64544;BME280;50936;51.660;5.616;2023-04-09T00:53:44;102189.84;;;9.69;100.00
64544;BME280;50936;51.660;5.616;2023-04-09T00:56:12;102186.34;;;9.67;100.00
64544;BME280;50936;51.660;5.616;2023-04-09T00:58:42;102181.91;;;9.66;100.00
64544;BME280;50936;51.660;5.616;2023-04-09T01:01:09;102180.94;;;9.67;100.00
64544;BME280;50936;51.660;5.616;2023-04-09T01:03:37;102174.63;;;9.68;100.00
64544;BME280;50936;51.660;5.616;2023-04-09T01:06:09;102182.72;;;9.68;100.00
64544;BME280;50936;51.660;5.616;2023-04-09T01:08:52;102177.31;;;9.68;100.00
64544;BME280;50936;51.660;5.616;2023-04-09T01:14:47;102178.31;;;9.65;100.00
64544;BME280;50936;51.660;5.616;2023-04-09T01:17:32;102170.31;;;9.63;100.00
64544;BME280;50936;51.660;5.616;2023-04-09T01:20:08;102172.16;;;9.61;100.00
64544;BME280;50936;51.660;5.616;2023-04-09T01:29:11;102170.72;;;9.54;100.00
64544;BME280;50936;51.660;5.616;2023-04-09T01:31:41;102167.13;;;9.54;100.00
64544;BME280;50936;51.660;5.616;2023-04-09T01:34:11;102165.31;;;9.54;100.00
64544;BME280;50936;51.660;5.616;2023-04-09T01:36:40;102167.91;;;9.56;100.00
64544;BME280;50936;51.660;5.616;2023-04-09T01:39:10;102168.88;;;9.55;100.00
64544;BME280;50936;51.660;5.616;2023-04-09T01:41:38;102167.06;;;9.55;100.00
64544;BME280;50936;51.660;5.616;2023-04-09T01:44:07;102161.72;;;9.54;100.00
64544;BME280;50936;51.660;5.616;2023-04-09T01:46:38;102167.19;;;9.52;100.00
64544;BME280;50936;51.660;5.616;2023-04-09T01:49:06;102168.19;;;9.50;100.00
64544;BME280;50936;51.660;5.616;2023-04-09T01:51:35;102163.84;;;9.47;100.00
64544;BME280;50936;51.660;5.616;2023-04-09T01:54:03;102162.88;;;9.48;100.00
64544;BME280;50936;51.660;5.616;2023-04-09T01:56:44;102160.13;;;9.50;100.00
64544;BME280;50936;51.660;5.616;2023-04-09T01:59:14;102154.78;;;9.48;100.00
64544;BME280;50936;51.660;5.616;2023-04-09T02:04:26;102167.47;;;9.46;100.00
64544;BME280;50936;51.660;5.616;2023-04-09T02:09:47;102161.25;;;9.44;100.00
64544;BME280;50936;51.660;5.616;2023-04-09T02:12:17;102163.97;;;9.44;100.00
64544;BME280;50936;51.660;5.616;2023-04-09T02:14:45;102163.97;;;9.44;100.00
64544;BME280;50936;51.660;5.616;2023-04-09T02:17:13;102167.59;;;9.43;100.00
64544;BME280;50936;51.660;5.616;2023-04-09T02:19:45;102163.09;;;9.43;100.00
64544;BME280;50936;51.660;5.616;2023-04-09T02:22:14;102164.88;;;9.43;100.00
64544;BME280;50936;51.660;5.616;2023-04-09T02:24:42;102160.56;;;9.39;100.00
64544;BME280;50936;51.660;5.616;2023-04-09T02:27:09;102151.69;;;9.37;100.00
64544;BME280;50936;51.660;5.616;2023-04-09T02:29:39;102157.94;;;9.37;100.00
64544;BME280;50936;51.660;5.616;2023-04-09T02:32:07;102158.09;;;9.34;100.00
64544;BME280;50936;51.660;5.616;2023-04-09T02:34:34;102155.31;;;9.36;100.00
64544;BME280;50936;51.660;5.616;2023-04-09T02:37:01;102155.19;;;9.39;100.00
64544;BME280;50936;51.660;5.616;2023-04-09T02:39:28;102146.34;;;9.35;100.00
64544;BME280;50936;51.660;5.616;2023-04-09T02:41:55;102145.44;;;9.36;100.00
64544;BME280;50936;51.660;5.616;2023-04-09T02:44:25;102149.06;;;9.35;100.00
64544;BME280;50936;51.660;5.616;2023-04-09T02:46:52;102145.53;;;9.33;100.00
64544;BME280;50936;51.660;5.616;2023-04-09T02:49:19;102145.53;;;9.33;100.00
64544;BME280;50936;51.660;5.616;2023-04-09T02:51:47;102148.19;;;9.35;100.00
64544;BME280;50936;51.660;5.616;2023-04-09T02:54:13;102138.31;;;9.34;100.00
64544;BME280;50936;51.660;5.616;2023-04-09T02:56:40;102137.53;;;9.32;100.00
64544;BME280;50936;51.660;5.616;2023-04-09T02:59:07;102141.31;;;9.28;100.00
64544;BME280;50936;51.660;5.616;2023-04-09T03:01:35;102141.41;;;9.24;100.00
64544;BME280;50936;51.660;5.616;2023-04-09T03:04:02;102141.41;;;9.24;100.00
64544;BME280;50936;51.660;5.616;2023-04-09T03:06:31;102137.91;;;9.22;100.00
64544;BME280;50936;51.660;5.616;2023-04-09T03:08:59;102141.56;;;9.21;100.00
64544;BME280;50936;51.660;5.616;2023-04-09T03:11:26;102137.13;;;9.20;100.00
64544;BME280;50936;51.660;5.616;2023-04-09T03:13:53;102140.63;;;9.22;100.00
64544;BME280;50936;51.660;5.616;2023-04-09T03:16:19;102134.41;;;9.20;100.00
64544;BME280;50936;51.660;5.616;2023-04-09T03:18:46;102136.19;;;9.21;100.00
64544;BME280;50936;51.660;5.616;2023-04-09T03:21:13;102132.66;;;9.19;100.00
64544;BME280;50936;51.660;5.616;2023-04-09T03:23:46;102135.56;;;9.15;100.00
64544;BME280;50936;51.660;5.616;2023-04-09T03:26:13;102134.69;;;9.14;100.00
64544;BME280;50936;51.660;5.616;2023-04-09T03:28:45;102127.53;;;9.13;100.00
64544;BME280;50936;51.660;5.616;2023-04-09T03:31:12;102126.78;;;9.10;100.00
64544;BME280;50936;51.660;5.616;2023-04-09T03:33:40;102122.25;;;9.10;100.00
64544;BME280;50936;51.660;5.616;2023-04-09T03:36:08;102126.78;;;9.10;100.00
64544;BME280;50936;51.660;5.616;2023-04-09T03:38:49;102116.13;;;9.06;100.00
64544;BME280;50936;51.660;5.616;2023-04-09T03:41:28;102115.41;;;9.03;100.00
64544;BME280;50936;51.660;5.616;2023-04-09T03:43:57;102110.16;;;9.00;100.00
64544;BME280;50936;51.660;5.616;2023-04-09T03:46:29;102109.53;;;8.93;100.00
64544;BME280;50936;51.660;5.616;2023-04-09T03:48:58;102108.91;;;8.86;100.00
64544;BME280;50936;51.660;5.616;2023-04-09T03:51:33;102114.44;;;8.83;100.00
64544;BME280;50936;51.660;5.616;2023-04-09T03:54:00;102106.53;;;8.79;100.00
64544;BME280;50936;51.660;5.616;2023-04-09T03:56:27;102108.47;;;8.75;100.00
64544;BME280;50936;51.660;5.616;2023-04-09T03:58:55;102109.47;;;8.73;100.00
64544;BME280;50936;51.660;5.616;2023-04-09T04:01:30;102106.84;;;8.71;100.00
64544;BME280;50936;51.660;5.616;2023-04-09T04:04:00;102106.84;;;8.71;100.00
64544;BME280;50936;51.660;5.616;2023-04-09T04:06:34;102101.59;;;8.68;100.00
64544;BME280;50936;51.660;5.616;2023-04-09T04:09:19;102107.13;;;8.65;100.00
64544;BME280;50936;51.660;5.616;2023-04-09T04:11:52;102106.31;;;8.63;100.00
64544;BME280;50936;51.660;5.616;2023-04-09T04:14:21;102107.19;;;8.63;100.00
64544;BME280;50936;51.660;5.616;2023-04-09T04:16:54;102107.22;;;8.62;100.00
64544;BME280;50936;51.660;5.616;2023-04-09T04:19:26;102109.16;;;8.58;100.00
64544;BME280;50936;51.660;5.616;2023-04-09T04:21:54;102110.31;;;8.53;100.00
64544;BME280;50936;51.660;5.616;2023-04-09T04:24:21;102113.91;;;8.52;100.00
64544;BME280;50936;51.660;5.616;2023-04-09T04:26:48;102105.03;;;8.50;100.00
64544;BME280;50936;51.660;5.616;2023-04-09T04:29:17;102109.81;;;8.43;100.00
64544;BME280;50936;51.660;5.616;2023-04-09T04:31:56;102110.91;;;8.37;100.00
64544;BME280;50936;51.660;5.616;2023-04-09T04:34:26;102110.19;;;8.32;100.00
64544;BME280;50936;51.660;5.616;2023-04-09T04:37:00;102111.38;;;8.25;100.00
64544;BME280;50936;51.660;5.616;2023-04-09T04:39:30;102116.13;;;8.18;100.00
64544;BME280;50936;51.660;5.616;2023-04-09T04:42:01;102113.84;;;8.07;100.00
64544;BME280;50936;51.660;5.616;2023-04-09T04:44:29;102117.84;;;7.97;100.00
64544;BME280;50936;51.660;5.616;2023-04-09T04:47:29;102113.84;;;7.84;100.00
64544;BME280;50936;51.660;5.616;2023-04-09T04:49:57;102113.38;;;7.72;100.00
64544;BME280;50936;51.660;5.616;2023-04-09T04:52:24;102113.72;;;7.63;100.00
64544;BME280;50936;51.660;5.616;2023-04-09T04:54:52;102115.81;;;7.55;100.00
64544;BME280;50936;51.660;5.616;2023-04-09T04:57:22;102116.16;;;7.46;100.00
64544;BME280;50936;51.660;5.616;2023-04-09T04:59:48;102108.41;;;7.37;100.00
64544;BME280;50936;51.660;5.616;2023-04-09T05:02:16;102111.31;;;7.30;100.00
64544;BME280;50936;51.660;5.616;2023-04-09T05:04:51;102116.91;;;7.24;100.00
64544;BME280;50936;51.660;5.616;2023-04-09T05:07:23;102114.44;;;7.18;100.00
64544;BME280;50936;51.660;5.616;2023-04-09T05:09:53;102112.78;;;7.14;100.00
64544;BME280;50936;51.660;5.616;2023-04-09T05:12:20;102109.31;;;7.10;100.00
64544;BME280;50936;51.660;5.616;2023-04-09T05:14:50;102106.81;;;7.06;100.00
64544;BME280;50936;51.660;5.616;2023-04-09T05:17:18;102117.56;;;7.06;100.00
64544;BME280;50936;51.660;5.616;2023-04-09T05:19:50;102111.41;;;7.02;100.00
64544;BME280;50936;51.660;5.616;2023-04-09T05:22:22;102112.41;;;7.00;100.00
64544;BME280;50936;51.660;5.616;2023-04-09T05:24:49;102115.19;;;6.97;100.00
64544;BME280;50936;51.660;5.616;2023-04-09T05:27:16;102107.13;;;6.97;100.00
64544;BME280;50936;51.660;5.616;2023-04-09T05:29:48;102107.03;;;7.00;100.00
64544;BME280;50936;51.660;5.616;2023-04-09T05:32:15;102112.41;;;7.00;100.00
64544;BME280;50936;51.660;5.616;2023-04-09T05:34:43;102115.97;;;7.00;100.00
64544;BME280;50936;51.660;5.616;2023-04-09T05:37:10;102113.91;;;7.07;100.00
64544;BME280;50936;51.660;5.616;2023-04-09T05:39:37;102117.28;;;7.13;100.00
64544;BME280;50936;51.660;5.616;2023-04-09T05:42:04;102120.66;;;7.20;100.00
64544;BME280;50936;51.660;5.616;2023-04-09T05:44:38;102114.94;;;7.29;100.00
64544;BME280;50936;51.660;5.616;2023-04-09T05:47:15;102121.19;;;7.30;100.00
64544;BME280;50936;51.660;5.616;2023-04-09T05:49:56;102119.50;;;7.27;100.00
64544;BME280;50936;51.660;5.616;2023-04-09T05:52:23;102114.81;;;7.32;100.00
64544;BME280;50936;51.660;5.616;2023-04-09T05:54:51;102110.00;;;7.42;100.00
64544;BME280;50936;51.660;5.616;2023-04-09T05:57:24;102110.97;;;7.40;100.00
64544;BME280;50936;51.660;5.616;2023-04-09T05:59:57;102105.59;;;7.40;100.00
64544;BME280;50936;51.660;5.616;2023-04-09T06:02:25;102112.41;;;7.50;100.00
64544;BME280;50936;51.660;5.616;2023-04-09T06:04:52;102122.06;;;7.56;100.00
64544;BME280;50936;51.660;5.616;2023-04-09T06:07:20;102115.69;;;7.58;100.00
64544;BME280;50936;51.660;5.616;2023-04-09T06:09:47;102124.13;;;7.72;100.00
64544;BME280;50936;51.660;5.616;2023-04-09T06:12:14;102117.97;;;7.69;100.00
64544;BME280;50936;51.660;5.616;2023-04-09T06:14:41;102126.00;;;7.70;100.00
64544;BME280;50936;51.660;5.616;2023-04-09T06:17:08;102132.66;;;7.84;100.00
64544;BME280;50936;51.660;5.616;2023-04-09T06:19:35;102127.88;;;7.92;100.00
64544;BME280;50936;51.660;5.616;2023-04-09T06:22:02;102123.06;;;8.00;100.00
64544;BME280;50936;51.660;5.616;2023-04-09T06:24:30;102128.25;;;8.06;100.00
64544;BME280;50936;51.660;5.616;2023-04-09T06:26:58;102135.84;;;8.19;100.00
64544;BME280;50936;51.660;5.616;2023-04-09T06:29:25;102129.97;;;8.31;100.00
64544;BME280;50936;51.660;5.616;2023-04-09T06:31:52;102135.94;;;8.39;100.00
64544;BME280;50936;51.660;5.616;2023-04-09T06:34:19;102141.00;;;8.48;100.00
64544;BME280;50936;51.660;5.616;2023-04-09T06:36:46;102137.63;;;8.65;100.00
64544;BME280;50936;51.660;5.616;2023-04-09T06:39:13;102146.63;;;8.86;100.00
64544;BME280;50936;51.660;5.616;2023-04-09T06:41:40;102148.94;;;8.96;100.00
64544;BME280;50936;51.660;5.616;2023-04-09T06:44:20;102143.97;;;9.07;100.00
64544;BME280;50936;51.660;5.616;2023-04-09T06:46:47;102151.69;;;9.37;100.00
64544;BME280;50936;51.660;5.616;2023-04-09T06:49:14;102141.84;;;9.56;100.00
64544;BME280;50936;51.660;5.616;2023-04-09T06:51:41;102149.38;;;9.48;100.00
64544;BME280;50936;51.660;5.616;2023-04-09T06:54:08;102147.97;;;9.39;100.00
64544;BME280;50936;51.660;5.616;2023-04-09T06:56:35;102142.56;;;9.39;100.00
64544;BME280;50936;51.660;5.616;2023-04-09T06:59:01;102142.50;;;9.41;100.00
64544;BME280;50936;51.660;5.616;2023-04-09T07:01:29;102142.91;;;9.52;100.00
64544;BME280;50936;51.660;5.616;2023-04-09T07:03:57;102143.03;;;9.70;100.00
64544;BME280;50936;51.660;5.616;2023-04-09T07:06:24;102147.53;;;9.90;100.00
64544;BME280;50936;51.660;5.616;2023-04-09T07:08:50;102153.63;;;10.14;100.00
64544;BME280;50936;51.660;5.616;2023-04-09T07:11:18;102153.84;;;10.28;100.00
64544;BME280;50936;51.660;5.616;2023-04-09T07:13:44;102160.06;;;10.49;100.00
64544;BME280;50936;51.660;5.616;2023-04-09T07:16:11;102161.19;;;10.64;100.00
64544;BME280;50936;51.660;5.616;2023-04-09T07:18:38;102156.41;;;10.69;100.00
64544;BME280;50936;51.660;5.616;2023-04-09T07:21:05;102160.41;;;10.79;100.00
64544;BME280;50936;51.660;5.616;2023-04-09T07:23:35;102155.81;;;10.82;100.00
64544;BME280;50936;51.660;5.616;2023-04-09T07:26:03;102154.81;;;10.65;100.00
64544;BME280;50936;51.660;5.616;2023-04-09T07:28:31;102157.75;;;10.42;100.00
64544;BME280;50936;51.660;5.616;2023-04-09T07:31:00;102156.69;;;10.25;100.00
64544;BME280;50936;51.660;5.616;2023-04-09T07:33:29;102165.34;;;10.13;100.00
64544;BME280;50936;51.660;5.616;2023-04-09T07:35:56;102155.50;;;10.12;100.00
64544;BME280;50936;51.660;5.616;2023-04-09T07:38:23;102160.88;;;10.32;100.00
64544;BME280;50936;51.660;5.616;2023-04-09T07:40:50;102161.25;;;10.63;100.00
64544;BME280;50936;51.660;5.616;2023-04-09T07:43:17;102157.84;;;10.76;100.00
64544;BME280;50936;51.660;5.616;2023-04-09T07:45:48;102162.34;;;10.95;100.00
64544;BME280;50936;51.660;5.616;2023-04-09T07:48:17;102155.84;;;11.16;100.00
64544;BME280;50936;51.660;5.616;2023-04-09T07:50:44;102159.06;;;11.25;100.00
64544;BME280;50936;51.660;5.616;2023-04-09T07:53:10;102152.34;;;11.14;100.00
64544;BME280;50936;51.660;5.616;2023-04-09T07:55:38;102158.56;;;10.99;100.00
64544;BME280;50936;51.660;5.616;2023-04-09T07:58:06;102159.97;;;11.06;100.00
64544;BME280;50936;51.660;5.616;2023-04-09T08:00:33;102150.28;;;11.20;100.00
64544;BME280;50936;51.660;5.616;2023-04-09T08:03:00;102149.81;;;11.29;100.00
64544;BME280;50936;51.660;5.616;2023-04-09T08:05:29;102146.06;;;11.49;100.00
64544;BME280;50936;51.660;5.616;2023-04-09T08:07:56;102143.75;;;11.59;100.00
64544;BME280;50936;51.660;5.616;2023-04-09T08:10:23;102157.13;;;11.62;100.00
64544;BME280;50936;51.660;5.616;2023-04-09T08:12:50;102155.38;;;11.61;100.00
64544;BME280;50936;51.660;5.616;2023-04-09T08:15:16;102157.66;;;11.68;100.00
64544;BME280;50936;51.660;5.616;2023-04-09T08:17:43;102154.22;;;11.82;100.00
64544;BME280;50936;51.660;5.616;2023-04-09T08:20:11;102158.03;;;11.96;100.00
64544;BME280;50936;51.660;5.616;2023-04-09T08:22:38;102150.50;;;12.18;100.00
64544;BME280;50936;51.660;5.616;2023-04-09T08:25:06;102149.44;;;12.21;100.00
64544;BME280;50936;51.660;5.616;2023-04-09T08:27:33;102156.78;;;12.19;100.00
64544;BME280;50936;51.660;5.616;2023-04-09T08:30:02;102152.09;;;12.22;100.00
64544;BME280;50936;51.660;5.616;2023-04-09T08:32:30;102148.19;;;12.10;100.00
64544;BME280;50936;51.660;5.616;2023-04-09T08:34:57;102151.50;;;12.00;100.00
64544;BME280;50936;51.660;5.616;2023-04-09T08:37:23;102149.75;;;11.81;100.00
64544;BME280;50936;51.660;5.616;2023-04-09T08:39:50;102150.25;;;11.72;100.00
64544;BME280;50936;51.660;5.616;2023-04-09T08:42:18;102153.84;;;11.72;100.00
64544;BME280;50936;51.660;5.616;2023-04-09T08:44:47;102157.88;;;11.81;100.00
64544;BME280;50936;51.660;5.616;2023-04-09T08:47:14;102151.16;;;11.88;100.00
64544;BME280;50936;51.660;5.616;2023-04-09T08:49:41;102152.38;;;12.00;100.00
64544;BME280;50936;51.660;5.616;2023-04-09T08:52:08;102151.03;;;12.09;100.00
64544;BME280;50936;51.660;5.616;2023-04-09T08:54:35;102148.38;;;12.23;100.00
64544;BME280;50936;51.660;5.616;2023-04-09T08:57:05;102142.72;;;12.28;100.00
64544;BME280;50936;51.660;5.616;2023-04-09T08:59:32;102148.06;;;12.29;100.00
64544;BME280;50936;51.660;5.616;2023-04-09T09:02:09;102143.28;;;12.35;100.00
64544;BME280;50936;51.660;5.616;2023-04-09T09:04:48;102143.34;;;12.49;100.00
64544;BME280;50936;51.660;5.616;2023-04-09T09:07:16;102142.81;;;12.58;100.00
64544;BME280;50936;51.660;5.616;2023-04-09T09:09:54;102137.06;;;12.64;98.22
64544;BME280;50936;51.660;5.616;2023-04-09T09:15:02;102141.78;;;12.77;97.63
64544;BME280;50936;51.660;5.616;2023-04-09T09:17:29;102143.97;;;12.86;97.02
64544;BME280;50936;51.660;5.616;2023-04-09T09:19:57;102145.34;;;12.93;94.56
64544;BME280;50936;51.660;5.616;2023-04-09T09:22:24;102134.38;;;12.95;93.82
64544;BME280;50936;51.660;5.616;2023-04-09T09:24:51;102133.34;;;12.97;92.35
64544;BME280;50936;51.660;5.616;2023-04-09T09:27:36;102130.88;;;13.08;93.86
64544;BME280;50936;51.660;5.616;2023-04-09T09:30:06;102138.16;;;13.38;93.20
64544;BME280;50936;51.660;5.616;2023-04-09T09:32:34;102139.38;;;13.77;88.96
64544;BME280;50936;51.660;5.616;2023-04-09T09:35:05;102133.56;;;14.12;88.58
64544;BME280;50936;51.660;5.616;2023-04-09T09:37:33;102125.97;;;14.32;85.41
64544;BME280;50936;51.660;5.616;2023-04-09T09:40:00;102133.31;;;14.44;86.99
64544;BME280;50936;51.660;5.616;2023-04-09T09:42:27;102130.72;;;14.84;87.10
64544;BME280;50936;51.660;5.616;2023-04-09T09:44:54;102128.69;;;15.28;81.67
64544;BME280;50936;51.660;5.616;2023-04-09T09:47:22;102134.66;;;15.46;80.63
64544;BME280;50936;51.660;5.616;2023-04-09T09:49:50;102127.41;;;15.59;79.14
64544;BME280;50936;51.660;5.616;2023-04-09T09:52:23;102128.94;;;15.63;77.61
64544;BME280;50936;51.660;5.616;2023-04-09T09:54:53;102122.34;;;15.27;78.31
64544;BME280;50936;51.660;5.616;2023-04-09T09:57:24;102123.25;;;15.40;79.01
64544;BME280;50936;51.660;5.616;2023-04-09T10:00:01;102108.25;;;15.61;78.58
64544;BME280;50936;51.660;5.616;2023-04-09T10:02:41;102106.69;;;15.69;77.21
64544;BME280;50936;51.660;5.616;2023-04-09T10:05:14;102102.94;;;15.85;77.84
64544;BME280;50936;51.660;5.616;2023-04-09T10:07:42;102107.34;;;16.11;78.15
64544;BME280;50936;51.660;5.616;2023-04-09T10:10:10;102108.41;;;16.59;73.27
64544;BME280;50936;51.660;5.616;2023-04-09T10:12:37;102108.78;;;16.54;71.75
64544;BME280;50936;51.660;5.616;2023-04-09T10:15:08;102095.81;;;15.95;71.62
64544;BME280;50936;51.660;5.616;2023-04-09T10:17:35;102100.50;;;15.80;74.51
64544;BME280;50936;51.660;5.616;2023-04-09T10:20:10;102085.34;;;15.63;74.61
64544;BME280;50936;51.660;5.616;2023-04-09T10:22:45;102097.97;;;15.51;75.39
64544;BME280;50936;51.660;5.616;2023-04-09T10:25:15;102094.47;;;15.36;76.16
64544;BME280;50936;51.660;5.616;2023-04-09T10:27:42;102094.03;;;15.17;74.05
64544;BME280;50936;51.660;5.616;2023-04-09T10:30:35;102086.69;;;14.92;74.30
64544;BME280;50936;51.660;5.616;2023-04-09T10:33:15;102080.28;;;14.93;76.55
64544;BME280;50936;51.660;5.616;2023-04-09T10:35:48;102085.31;;;15.12;76.45
64544;BME280;50936;51.660;5.616;2023-04-09T10:38:15;102080.78;;;15.51;76.66
64544;BME280;50936;51.660;5.616;2023-04-09T10:40:49;102074.47;;;15.63;70.98
64544;BME280;50936;51.660;5.616;2023-04-09T10:43:18;102077.06;;;15.65;70.19
64544;BME280;50936;51.660;5.616;2023-04-09T10:45:47;102074.00;;;15.56;71.24
64544;BME280;50936;51.660;5.616;2023-04-09T10:48:19;102071.94;;;15.47;67.42
64544;BME280;50936;51.660;5.616;2023-04-09T10:50:49;102070.13;;;15.35;66.80
64544;BME280;50936;51.660;5.616;2023-04-09T10:53:22;102068.97;;;15.12;67.14
64544;BME280;50936;51.660;5.616;2023-04-09T10:55:51;102062.44;;;15.01;68.32
64544;BME280;50936;51.660;5.616;2023-04-09T10:58:19;102066.13;;;15.00;68.29
64544;BME280;50936;51.660;5.616;2023-04-09T11:00:48;102058.94;;;14.99;66.57
64544;BME280;50936;51.660;5.616;2023-04-09T11:03:27;102059.69;;;15.01;66.10
64544;BME280;50936;51.660;5.616;2023-04-09T11:06:03;102055.31;;;15.39;64.90
64544;BME280;50936;51.660;5.616;2023-04-09T11:08:35;102049.31;;;15.85;66.76
64544;BME280;50936;51.660;5.616;2023-04-09T11:11:04;102045.44;;;16.01;59.45
64544;BME280;50936;51.660;5.616;2023-04-09T11:13:31;102042.56;;;16.15;60.54
64544;BME280;50936;51.660;5.616;2023-04-09T11:16:00;102040.94;;;16.49;60.99
64544;BME280;50936;51.660;5.616;2023-04-09T11:18:30;102050.38;;;17.16;55.46
64544;BME280;50936;51.660;5.616;2023-04-09T11:21:01;102044.50;;;17.56;52.95
64544;BME280;50936;51.660;5.616;2023-04-09T11:23:30;102041.50;;;17.82;54.57
64544;BME280;50936;51.660;5.616;2023-04-09T11:25:58;102040.97;;;18.33;49.84
64544;BME280;50936;51.660;5.616;2023-04-09T11:28:25;102040.31;;;18.52;49.01
64544;BME280;50936;51.660;5.616;2023-04-09T11:30:52;102040.94;;;18.56;49.51
64544;BME280;50936;51.660;5.616;2023-04-09T11:33:19;102037.13;;;18.68;48.68
64544;BME280;50936;51.660;5.616;2023-04-09T11:35:47;102042.59;;;18.79;49.08
64544;BME280;50936;51.660;5.616;2023-04-09T11:38:14;102039.81;;;18.91;49.23
64544;BME280;50936;51.660;5.616;2023-04-09T11:40:43;102045.56;;;19.30;47.20
64544;BME280;50936;51.660;5.616;2023-04-09T11:43:16;102042.25;;;19.57;46.68
64544;BME280;50936;51.660;5.616;2023-04-09T11:45:44;102039.66;;;19.55;45.78
64544;BME280;50936;51.660;5.616;2023-04-09T11:48:15;102040.34;;;18.73;44.78
64544;BME280;50936;51.660;5.616;2023-04-09T11:50:47;102039.03;;;17.67;46.81
64544;BME280;50936;51.660;5.616;2023-04-09T11:53:16;102043.50;;;17.68;47.57
64544;BME280;50936;51.660;5.616;2023-04-09T11:55:51;102034.56;;;17.44;47.82
64544;BME280;50936;51.660;5.616;2023-04-09T11:58:24;102025.47;;;17.21;49.25
64544;BME280;50936;51.660;5.616;2023-04-09T12:00:52;102025.00;;;17.72;48.77
64544;BME280;50936;51.660;5.616;2023-04-09T12:03:30;102026.09;;;18.15;47.04
64544;BME280;50936;51.660;5.616;2023-04-09T12:06:06;102026.59;;;18.63;47.23
64544;BME280;50936;51.660;5.616;2023-04-09T12:08:35;102025.41;;;18.89;45.23
64544;BME280;50936;51.660;5.616;2023-04-09T12:11:14;102029.78;;;19.01;44.57
64544;BME280;50936;51.660;5.616;2023-04-09T12:13:41;102026.13;;;19.33;46.68
64544;BME280;50936;51.660;5.616;2023-04-09T12:16:12;102024.97;;;19.56;44.38
64544;BME280;50936;51.660;5.616;2023-04-09T12:18:40;102029.97;;;19.51;45.13
64544;BME280;50936;51.660;5.616;2023-04-09T12:21:08;102013.97;;;19.26;42.80
64544;BME280;50936;51.660;5.616;2023-04-09T12:23:35;102025.59;;;19.18;43.27
64544;BME280;50936;51.660;5.616;2023-04-09T12:26:02;102017.91;;;19.33;42.88
64544;BME280;50936;51.660;5.616;2023-04-09T12:28:29;102015.44;;;19.60;42.79
64544;BME280;50936;51.660;5.616;2023-04-09T12:30:56;102018.47;;;19.88;42.60
64544;BME280;50936;51.660;5.616;2023-04-09T12:33:25;102022.00;;;20.10;42.27
64544;BME280;50936;51.660;5.616;2023-04-09T12:35:51;102023.03;;;19.78;41.03
64544;BME280;50936;51.660;5.616;2023-04-09T12:38:18;102012.13;;;19.05;42.22
64544;BME280;50936;51.660;5.616;2023-04-09T12:40:45;102013.59;;;18.77;43.70
64544;BME280;50936;51.660;5.616;2023-04-09T12:43:12;102008.91;;;19.00;44.34
64544;BME280;50936;51.660;5.616;2023-04-09T12:45:39;102014.16;;;19.34;44.64
64544;BME280;50936;51.660;5.616;2023-04-09T12:48:06;102015.28;;;19.83;44.18
64544;BME280;50936;51.660;5.616;2023-04-09T12:50:33;102012.22;;;20.36;42.80
64544;BME280;50936;51.660;5.616;2023-04-09T12:53:00;102014.56;;;20.90;39.93
64544;BME280;50936;51.660;5.616;2023-04-09T12:55:27;102007.63;;;21.05;38.49
64544;BME280;50936;51.660;5.616;2023-04-09T12:57:53;102014.28;;;21.12;38.52
64544;BME280;50936;51.660;5.616;2023-04-09T13:00:20;102017.13;;;21.30;39.05
64544;BME280;50936;51.660;5.616;2023-04-09T13:02:48;102011.06;;;21.17;37.41
64544;BME280;50936;51.660;5.616;2023-04-09T13:05:17;102012.69;;;20.81;39.01
64544;BME280;50936;51.660;5.616;2023-04-09T13:07:44;102002.13;;;20.47;38.30
64544;BME280;50936;51.660;5.616;2023-04-09T13:10:11;102001.44;;;19.94;38.89
64544;BME280;50936;51.660;5.616;2023-04-09T13:12:38;102000.34;;;19.14;39.33
64544;BME280;50936;51.660;5.616;2023-04-09T13:15:05;101998.25;;;18.53;41.29
64544;BME280;50936;51.660;5.616;2023-04-09T13:17:32;102001.75;;;18.23;42.61